Classifiche di sempre
Migliori tempi personali validi di atleta tra tutti gli eventi e le stagioni. Ogni atleta compare una sola volta per divisione.
Cerca per nome e apri la pagina in cui è classificato questo record di divisione.
179,683 atleti in classifica
| Pos. | Pos. AG | Atleta | Nazionalità | Categoria età | TempoMiglior tempo | Distacco |
|---|---|---|---|---|---|---|
| 177926 | #7949 | Chun Kit LungHKG · M 50-54 · AG #7949 | HKG | M 50-54 | 2:38:36 | +107:58 |
| 177927 | #18132 | Suphasin WannasriTHA · M 16-24 · AG #18132 | THA | M 16-24 | 2:38:36 | +107:58 |
| 177928 | #37152 | Adrian Benedict TanPHI · M 25-29 · AG #37152 | PHI | M 25-29 | 2:38:36 | +107:58 |
| 177929 | #37153 | Shidharth ShirodkarIND · M 25-29 · AG #37153 | IND | M 25-29 | 2:38:36 | +107:58 |
| 177930 | #37154 | Mohammad Ali AlawiyaPHI · M 25-29 · AG #37154 | PHI | M 25-29 | 2:38:37 | +107:59 |
| 177931 | #46511 | Tanel AamerEST · M 30-34 · AG #46511 | EST | M 30-34 | 2:38:37 | +107:59 |
| 177932 | #7950 | Alberto CortesMEX · M 50-54 · AG #7950 | MEX | M 50-54 | 2:38:37 | +107:59 |
| 177933 | #1530 | Visvanathan MoodleyRSA · M 60-64 · AG #1530 | RSA | M 60-64 | 2:38:38 | +108:00 |
| 177934 | #14776 | Locka OkorieGBR · M 45-49 · AG #14776 | GBR | M 45-49 | 2:38:39 | +108:01 |
| 177935 | #3678 | Chris WolskiUSA · M 55-59 · AG #3678 | USA | M 55-59 | 2:38:41 | +108:03 |
| 177936 | #38786 | Hu AaronTPE · M 35-39 · AG #38786 | TPE | M 35-39 | 2:38:41 | +108:03 |
| 177937 | #37155 | Ariff husaini sholehuddinMAS · M 25-29 · AG #37155 | MAS | M 25-29 | 2:38:41 | +108:03 |
| 177938 | #37156 | Meet KothariIND · M 25-29 · AG #37156 | IND | M 25-29 | 2:38:41 | +108:03 |
| 177939 | #14777 | Wataru SatoJPN · M 45-49 · AG #14777 | JPN | M 45-49 | 2:38:42 | +108:04 |
| 177940 | #379 | James CazolaUSA · M 65-69 · AG #379 | USA | M 65-69 | 2:38:42 | +108:04 |
| 177941 | #46512 | Abhinav BansalIND · M 30-34 · AG #46512 | IND | M 30-34 | 2:38:43 | +108:05 |
| 177942 | #37157 | Ben WykesGBR · M 25-29 · AG #37157 | GBR | M 25-29 | 2:38:45 | +108:07 |
| 177943 | #7951 | Jean Claude HavyarimanaRSA · M 50-54 · AG #7951 | RSA | M 50-54 | 2:38:45 | +108:07 |
| 177944 | #14778 | Jose Francisco Rodriguez GomezMEX · M 45-49 · AG #14778 | MEX | M 45-49 | 2:38:46 | +108:08 |
| 177945 | #37158 | Luke BarrGBR · M 25-29 · AG #37158 | GBR | M 25-29 | 2:38:47 | +108:09 |
| 177946 | #46513 | Fir NsSIN · M 30-34 · AG #46513 | SIN | M 30-34 | 2:38:47 | +108:09 |
| 177947 | #46515 | 伯澤 林HYR · M 30-34 · AG #46515 | HYR | M 30-34 | 2:38:47 | +108:09 |
| 177948 | #46514 | Charlie RogerUSA · M 30-34 · AG #46514 | USA | M 30-34 | 2:38:47 | +108:09 |
| 177949 | #37159 | Daniel IkejiGBR · M 25-29 · AG #37159 | GBR | M 25-29 | 2:38:47 | +108:09 |
| 177950 | #14779 | Jose Francisco MoralesMEX · M 45-49 · AG #14779 | MEX | M 45-49 | 2:38:48 | +108:10 |
Pagina 7,118 di 7,188